createdAt,value
2019-01-11T00:00:07.941Z,0.00
2019-01-11T00:01:07.937Z,0.00
2019-01-11T00:02:07.965Z,0.00
2019-01-11T00:03:07.909Z,0.00
2019-01-11T00:04:07.953Z,0.00
2019-01-11T00:05:07.898Z,0.00
2019-01-11T00:06:07.878Z,0.00
2019-01-11T00:07:07.866Z,0.00
2019-01-11T00:08:07.854Z,0.00
2019-01-11T00:09:07.853Z,0.00
2019-01-11T00:10:07.878Z,0.00
2019-01-11T00:11:07.825Z,0.00
2019-01-11T00:12:07.859Z,0.00
2019-01-11T00:13:07.801Z,0.00
2019-01-11T00:14:07.793Z,0.00
2019-01-11T00:15:07.781Z,0.00
2019-01-11T00:16:07.771Z,0.00
2019-01-11T00:17:07.807Z,0.00
2019-01-11T00:18:07.746Z,0.00
2019-01-11T00:19:07.735Z,0.00
2019-01-11T00:20:07.726Z,0.00
2019-01-11T00:21:07.718Z,0.00
2019-01-11T00:22:07.703Z,0.00
2019-01-11T00:23:07.743Z,0.00
2019-01-11T00:24:07.679Z,0.00
2019-01-11T00:25:07.669Z,0.00
2019-01-11T00:26:07.661Z,0.00
2019-01-11T00:27:07.647Z,0.00
2019-01-11T00:28:07.638Z,0.00
2019-01-11T00:29:07.668Z,0.00
2019-01-11T00:30:07.618Z,0.00
2019-01-11T00:31:07.651Z,0.00
2019-01-11T00:32:07.594Z,0.00
2019-01-11T00:33:07.584Z,0.00
2019-01-11T00:34:07.579Z,0.00
2019-01-11T00:35:07.609Z,0.00
2019-01-11T00:36:07.558Z,0.00
2019-01-11T00:37:07.538Z,0.00
2019-01-11T00:38:07.568Z,0.00
2019-01-11T00:39:07.520Z,0.00
2019-01-11T00:40:07.551Z,0.00
2019-01-11T00:41:07.510Z,0.00
2019-01-11T00:42:07.485Z,0.00
2019-01-11T00:43:07.525Z,0.00
2019-01-11T00:44:07.464Z,0.00
2019-01-11T00:45:07.460Z,0.00
2019-01-11T00:46:07.441Z,0.00
2019-01-11T00:47:07.477Z,0.00
2019-01-11T00:48:07.420Z,0.00
2019-01-11T00:49:13.388Z,0.00
2019-01-11T00:50:08.393Z,0.00
2019-01-11T00:51:07.385Z,0.00
2019-01-11T00:52:07.381Z,0.00
2019-01-11T00:53:07.411Z,0.00
2019-01-11T00:54:07.351Z,0.00
2019-01-11T00:55:07.345Z,0.00
2019-01-11T00:56:07.337Z,0.00
2019-01-11T00:57:07.391Z,0.00
2019-01-11T00:58:07.314Z,0.00
2019-01-11T00:59:07.394Z,0.00
2019-01-11T01:00:07.287Z,0.00
2019-01-11T01:01:07.282Z,0.00
2019-01-11T01:02:07.312Z,0.00
2019-01-11T01:03:07.255Z,0.00
2019-01-11T01:04:07.244Z,0.00
2019-01-11T01:05:07.274Z,0.00
2019-01-11T01:06:07.224Z,0.00
2019-01-11T01:07:07.209Z,0.00
2019-01-11T01:08:07.201Z,0.00
2019-01-11T01:09:07.188Z,0.00
2019-01-11T01:10:07.179Z,0.00
2019-01-11T01:11:07.212Z,0.00
2019-01-11T01:12:07.206Z,0.00
2019-01-11T01:13:07.143Z,0.00
2019-01-11T01:14:07.133Z,0.00
2019-01-11T01:15:07.168Z,0.00
2019-01-11T01:16:07.112Z,0.00
2019-01-11T01:17:07.105Z,0.00
2019-01-11T01:18:07.133Z,0.00
2019-01-11T01:19:07.085Z,0.00
2019-01-11T01:20:07.067Z,0.00
2019-01-11T01:21:07.098Z,0.00
2019-01-11T01:22:07.045Z,0.00
2019-01-11T01:23:07.042Z,0.00
2019-01-11T01:24:07.078Z,0.00
2019-01-11T01:25:07.015Z,0.00
2019-01-11T01:26:07.011Z,0.00
2019-01-11T01:27:06.994Z,0.00
2019-01-11T01:28:06.987Z,0.00
2019-01-11T01:29:06.972Z,0.00
2019-01-11T01:30:07.016Z,0.00
2019-01-11T01:31:06.959Z,0.00
2019-01-11T01:32:08.292Z,0.00
2019-01-11T01:33:06.924Z,0.00
2019-01-11T01:34:06.927Z,0.00
2019-01-11T01:35:07.280Z,0.00
2019-01-11T01:36:06.900Z,0.00
2019-01-11T01:37:06.884Z,0.00
2019-01-11T01:38:06.872Z,0.00
2019-01-11T01:39:06.861Z,0.00
2019-01-11T01:40:06.851Z,0.00
2019-01-11T01:41:06.885Z,0.00
2019-01-11T01:42:06.832Z,0.00
2019-01-11T01:43:06.813Z,0.00
2019-01-11T01:44:06.807Z,0.00
2019-01-11T01:45:06.793Z,0.00
2019-01-11T01:46:06.789Z,0.00
2019-01-11T01:47:06.810Z,0.00
2019-01-11T01:48:06.758Z,0.00
2019-01-11T01:49:06.750Z,0.00
2019-01-11T01:50:06.739Z,0.00
2019-01-11T01:51:06.726Z,0.00
2019-01-11T01:52:06.768Z,0.00
2019-01-11T01:53:06.707Z,0.00
2019-01-11T01:54:06.695Z,0.00
2019-01-11T01:55:06.693Z,0.00
2019-01-11T01:56:06.688Z,0.00
2019-01-11T01:57:06.663Z,0.00
2019-01-11T01:58:06.693Z,0.00
2019-01-11T01:59:06.639Z,0.00
2019-01-11T02:00:06.677Z,0.00
2019-01-11T02:01:06.629Z,0.00
2019-01-11T02:02:06.610Z,0.00
2019-01-11T02:03:06.595Z,0.00
2019-01-11T02:04:06.588Z,0.00
2019-01-11T02:05:06.572Z,0.00
2019-01-11T02:06:06.617Z,0.00
2019-01-11T02:07:06.549Z,0.00
2019-01-11T02:08:06.537Z,0.00
2019-01-11T02:09:06.533Z,0.00
2019-01-11T02:10:06.521Z,0.00
2019-01-11T02:11:06.506Z,0.00
2019-01-11T02:12:06.539Z,0.00
2019-01-11T02:13:06.535Z,0.00
2019-01-11T02:14:06.473Z,0.00
2019-01-11T02:15:06.466Z,0.00
2019-01-11T02:16:06.451Z,0.00
2019-01-11T02:17:06.445Z,0.00
2019-01-11T02:18:06.434Z,0.00
2019-01-11T02:19:06.462Z,0.00
2019-01-11T02:20:06.409Z,0.00
2019-01-11T02:21:06.407Z,0.00
2019-01-11T02:22:06.384Z,0.00
2019-01-11T02:23:06.376Z,0.00
2019-01-11T02:24:06.409Z,0.00
2019-01-11T02:25:06.358Z,0.00
2019-01-11T02:26:06.396Z,0.00
2019-01-11T02:27:06.333Z,0.00
2019-01-11T02:28:06.605Z,0.00
2019-01-11T02:29:06.313Z,0.00
2019-01-11T02:30:06.299Z,0.00
2019-01-11T02:31:06.290Z,0.00
2019-01-11T02:32:06.278Z,0.00
2019-01-11T02:33:06.283Z,0.00
2019-01-11T02:34:06.302Z,0.00
2019-01-11T02:35:06.292Z,0.00
2019-01-11T02:36:06.234Z,0.00
2019-01-11T02:37:06.249Z,0.00
2019-01-11T02:38:06.208Z,0.00
2019-01-11T02:39:06.201Z,0.00
2019-01-11T02:40:06.190Z,0.00
2019-01-11T02:41:06.229Z,0.00
2019-01-11T02:42:06.166Z,0.00
2019-01-11T02:43:06.159Z,0.00
2019-01-11T02:44:06.150Z,0.00
2019-01-11T02:45:06.134Z,0.00
2019-01-11T02:46:06.124Z,0.00
2019-01-11T02:47:06.154Z,0.00
2019-01-11T02:48:06.155Z,0.00
2019-01-11T02:49:06.094Z,0.00
2019-01-11T02:50:06.082Z,0.00
2019-01-11T02:51:06.077Z,0.00
2019-01-11T02:52:06.069Z,0.00
2019-01-11T02:53:06.046Z,0.00
2019-01-11T02:54:06.087Z,0.00
2019-01-11T02:55:06.032Z,0.00
2019-01-11T02:56:06.016Z,0.00
2019-01-11T02:57:06.044Z,0.00
2019-01-11T02:58:06.049Z,0.00
2019-01-11T02:59:06.024Z,0.00
2019-01-11T03:00:06.013Z,0.00
2019-01-11T03:01:05.968Z,0.00
2019-01-11T03:02:05.949Z,0.00
2019-01-11T03:03:05.937Z,0.00
2019-01-11T03:04:05.931Z,0.00
2019-01-11T03:05:05.916Z,0.00
2019-01-11T03:06:05.949Z,0.00
2019-01-11T03:07:05.899Z,0.00
2019-01-11T03:08:05.924Z,0.00
2019-01-11T03:09:05.919Z,0.00
2019-01-11T03:10:05.860Z,0.00
2019-01-11T03:11:05.853Z,0.00
2019-01-11T03:12:05.844Z,0.00
2019-01-11T03:13:05.828Z,0.00
2019-01-11T03:14:05.868Z,0.00
2019-01-11T03:15:05.812Z,0.00
2019-01-11T03:16:05.803Z,0.00
2019-01-11T03:17:05.824Z,0.00
2019-01-11T03:18:05.780Z,0.00
2019-01-11T03:19:05.773Z,0.00
2019-01-11T03:20:05.759Z,0.00
2019-01-11T03:21:05.748Z,0.00
2019-01-11T03:22:05.777Z,0.00
2019-01-11T03:23:05.722Z,0.00
2019-01-11T03:24:05.759Z,0.00
2019-01-11T03:25:05.711Z,0.00
2019-01-11T03:26:05.692Z,0.00
2019-01-11T03:27:05.677Z,0.00
2019-01-11T03:28:05.714Z,0.00
2019-01-11T03:29:05.657Z,0.00
2019-01-11T03:30:05.713Z,0.00
2019-01-11T03:31:05.643Z,0.00
2019-01-11T03:32:05.670Z,0.00
2019-01-11T03:33:05.613Z,0.00
2019-01-11T03:34:05.644Z,0.00
2019-01-11T03:35:05.593Z,0.00
2019-01-11T03:36:05.581Z,0.00
2019-01-11T03:37:05.574Z,0.00
2019-01-11T03:38:05.571Z,0.00
2019-01-11T03:39:05.545Z,0.00
2019-01-11T03:40:05.578Z,0.00
2019-01-11T03:41:05.589Z,0.00
2019-01-11T03:42:05.513Z,0.00
2019-01-11T03:43:05.504Z,0.00
2019-01-11T03:44:05.498Z,0.00
2019-01-11T03:45:05.489Z,0.00
2019-01-11T03:46:05.525Z,0.00
2019-01-11T03:47:05.463Z,0.00
2019-01-11T03:48:05.515Z,0.00
2019-01-11T03:49:05.442Z,0.00
2019-01-11T03:50:05.431Z,0.00
2019-01-11T03:51:05.416Z,0.00
2019-01-11T03:52:05.454Z,0.00
2019-01-11T03:53:05.397Z,0.00
2019-01-11T03:54:05.390Z,0.00
2019-01-11T03:55:05.379Z,0.00
2019-01-11T03:56:05.358Z,0.00
2019-01-11T03:57:05.361Z,0.00
2019-01-11T03:58:05.383Z,0.00
2019-01-11T03:59:05.387Z,0.00
2019-01-11T04:00:05.323Z,0.00
2019-01-11T04:01:05.350Z,0.00
2019-01-11T04:02:05.301Z,0.00
2019-01-11T04:03:05.286Z,0.00
2019-01-11T04:04:05.319Z,0.00
2019-01-11T04:05:05.262Z,0.00
2019-01-11T04:06:05.289Z,0.00
2019-01-11T04:07:05.253Z,0.00
2019-01-11T04:08:05.228Z,0.00
2019-01-11T04:09:05.227Z,0.00
2019-01-11T04:10:05.252Z,0.00
2019-01-11T04:11:05.245Z,0.00
2019-01-11T04:12:05.239Z,0.00
2019-01-11T04:13:05.183Z,0.00
2019-01-11T04:14:05.164Z,0.00
2019-01-11T04:15:05.198Z,0.00
2019-01-11T04:16:05.140Z,0.00
2019-01-11T04:17:05.144Z,0.00
2019-01-11T04:18:05.123Z,0.00
2019-01-11T04:19:05.108Z,0.00
2019-01-11T04:20:05.101Z,0.00
2019-01-11T04:21:05.129Z,0.00
2019-01-11T04:22:05.076Z,0.00
2019-01-11T04:23:05.068Z,0.00
2019-01-11T04:24:05.102Z,0.00
2019-01-11T04:25:05.047Z,0.00
2019-01-11T04:26:05.034Z,0.00
2019-01-11T04:27:05.027Z,0.00
2019-01-11T04:28:05.014Z,0.00
2019-01-11T04:29:05.011Z,0.00
2019-01-11T04:30:05.047Z,0.00
2019-01-11T04:31:05.026Z,0.00
2019-01-11T04:32:04.971Z,0.00
2019-01-11T04:33:04.954Z,0.00
2019-01-11T04:34:04.950Z,0.00
2019-01-11T04:35:04.968Z,0.00
2019-01-11T04:36:04.929Z,0.00
2019-01-11T04:37:04.967Z,0.00
2019-01-11T04:38:04.941Z,0.00
2019-01-11T04:39:04.892Z,0.00
2019-01-11T04:40:04.895Z,0.00
2019-01-11T04:41:04.870Z,0.00
2019-01-11T04:42:04.898Z,0.00
2019-01-11T04:43:04.846Z,0.00
2019-01-11T04:44:04.847Z,0.00
2019-01-11T04:45:04.825Z,0.00
2019-01-11T04:46:04.864Z,0.00
2019-01-11T04:47:04.848Z,0.00
2019-01-11T04:48:04.937Z,0.00
2019-01-11T04:49:04.858Z,0.00
2019-01-11T04:50:09.303Z,0.00
2019-01-11T04:51:04.760Z,0.00
2019-01-11T04:52:05.030Z,0.00
2019-01-11T04:53:04.737Z,0.00
2019-01-11T04:54:04.729Z,0.00
2019-01-11T04:55:04.738Z,0.00
2019-01-11T04:56:04.709Z,0.00
2019-01-11T04:57:04.690Z,0.00
2019-01-11T04:58:04.725Z,0.00
2019-01-11T04:59:04.709Z,0.00
2019-01-11T05:00:04.702Z,0.00
2019-01-11T05:01:04.653Z,0.00
2019-01-11T05:02:04.646Z,0.00
2019-01-11T05:03:04.632Z,0.00
2019-01-11T05:04:04.620Z,0.00
2019-01-11T05:05:04.721Z,0.00
2019-01-11T05:06:04.639Z,0.00
2019-01-11T05:07:04.635Z,0.00
2019-01-11T05:08:04.614Z,0.00
2019-01-11T05:09:04.568Z,0.00
2019-01-11T05:10:04.547Z,0.00
2019-01-11T05:11:04.590Z,0.00
2019-01-11T05:12:04.573Z,0.00
2019-01-11T05:13:04.520Z,0.00
2019-01-11T05:14:04.551Z,0.00
2019-01-11T05:15:04.501Z,0.00
2019-01-11T05:16:04.490Z,0.00
2019-01-11T05:17:04.482Z,0.00
2019-01-11T05:18:04.505Z,0.00
2019-01-11T05:19:04.468Z,0.00
2019-01-11T05:20:04.443Z,0.00
2019-01-11T05:21:04.429Z,0.00
2019-01-11T05:22:04.419Z,0.00
2019-01-11T05:23:04.414Z,0.00
2019-01-11T05:24:04.438Z,0.00
2019-01-11T05:25:04.384Z,0.00
2019-01-11T05:26:04.388Z,0.00
2019-01-11T05:27:04.362Z,0.00
2019-01-11T05:28:04.360Z,0.00
2019-01-11T05:29:04.342Z,0.00
2019-01-11T05:30:04.393Z,0.00
2019-01-11T05:31:04.345Z,0.00
2019-01-11T05:32:04.305Z,0.00
2019-01-11T05:33:04.298Z,0.00
2019-01-11T05:34:04.284Z,0.00
2019-01-11T05:35:04.278Z,0.00
2019-01-11T05:36:04.316Z,0.00
2019-01-11T05:37:04.253Z,0.00
2019-01-11T05:38:04.254Z,0.00
2019-01-11T05:39:04.229Z,0.00
2019-01-11T05:40:04.223Z,0.00
2019-01-11T05:41:04.207Z,0.00
2019-01-11T05:42:04.406Z,0.00
2019-01-11T05:43:04.188Z,0.00
2019-01-11T05:44:05.291Z,0.00
2019-01-11T05:45:04.165Z,0.00
2019-01-11T05:46:04.153Z,0.00
2019-01-11T05:47:04.191Z,0.00
2019-01-11T05:48:04.146Z,0.00
2019-01-11T05:49:04.117Z,0.00
2019-01-11T05:50:04.334Z,0.00
2019-01-11T05:51:04.098Z,0.00
2019-01-11T05:52:04.087Z,0.00
2019-01-11T05:53:04.126Z,0.00
2019-01-11T05:54:04.071Z,0.00
2019-01-11T05:55:04.112Z,0.00
2019-01-11T05:56:04.045Z,0.00
2019-01-11T05:57:04.037Z,0.00
2019-01-11T05:58:04.071Z,0.00
2019-01-11T05:59:04.011Z,0.00
2019-01-11T06:00:04.005Z,0.00
2019-01-11T06:01:04.001Z,0.00
2019-01-11T06:02:04.033Z,0.00
2019-01-11T06:03:03.969Z,0.00
2019-01-11T06:04:03.964Z,0.00
2019-01-11T06:05:04.245Z,0.00
2019-01-11T06:06:03.982Z,0.00
2019-01-11T06:07:03.971Z,0.00
2019-01-11T06:08:03.923Z,0.00
2019-01-11T06:09:03.922Z,0.00
2019-01-11T06:10:03.894Z,0.00
2019-01-11T06:11:03.889Z,0.00
2019-01-11T06:12:03.871Z,0.00
2019-01-11T06:13:03.905Z,0.00
2019-01-11T06:14:03.870Z,0.00
2019-01-11T06:15:03.837Z,0.00
2019-01-11T06:16:03.838Z,0.00
2019-01-11T06:17:03.822Z,0.00
2019-01-11T06:18:03.848Z,0.00
2019-01-11T06:19:03.799Z,0.00
2019-01-11T06:20:03.787Z,0.00
2019-01-11T06:21:03.817Z,0.00
2019-01-11T06:22:03.765Z,0.00
2019-01-11T06:23:03.782Z,0.00
2019-01-11T06:24:03.792Z,0.00
2019-01-11T06:25:03.773Z,0.00
2019-01-11T06:26:03.720Z,0.00
2019-01-11T06:27:03.709Z,0.00
2019-01-11T06:28:03.699Z,0.00
2019-01-11T06:29:03.684Z,0.00
2019-01-11T06:30:03.744Z,0.00
2019-01-11T06:31:03.670Z,0.00
2019-01-11T06:32:03.673Z,0.00
2019-01-11T06:33:03.643Z,0.00
2019-01-11T06:34:05.077Z,0.00
2019-01-11T06:35:03.695Z,0.00
2019-01-11T06:36:03.610Z,0.00
2019-01-11T06:37:03.634Z,0.00
2019-01-11T06:38:03.608Z,0.00
2019-01-11T06:39:03.586Z,0.00
2019-01-11T06:40:03.604Z,0.00
2019-01-11T06:41:03.552Z,0.00
2019-01-11T06:42:03.636Z,0.00
2019-01-11T06:43:03.845Z,0.00
2019-01-11T06:44:03.594Z,0.00
2019-01-11T06:45:03.506Z,0.00
2019-01-11T06:46:03.503Z,0.00
2019-01-11T06:47:03.489Z,0.00
2019-01-11T06:48:03.483Z,0.00
2019-01-11T06:49:03.466Z,0.00
2019-01-11T06:50:03.500Z,0.00
2019-01-11T06:51:03.443Z,0.00
2019-01-11T06:52:03.452Z,4.00
2019-01-11T06:53:03.426Z,4.00
2019-01-11T06:54:03.412Z,4.00
2019-01-11T06:55:03.416Z,4.00
2019-01-11T06:56:03.455Z,4.00
2019-01-11T06:57:03.377Z,4.00
2019-01-11T06:58:04.225Z,4.00
2019-01-11T06:59:03.438Z,4.00
2019-01-11T07:00:03.444Z,4.00
2019-01-11T07:01:03.333Z,4.00
2019-01-11T07:02:03.324Z,4.00
2019-01-11T07:03:03.313Z,4.00
2019-01-11T07:04:03.352Z,4.00
2019-01-11T07:05:03.346Z,0.00
2019-01-11T07:06:03.285Z,4.00
2019-01-11T07:07:03.347Z,4.00
2019-01-11T07:08:03.267Z,4.00
2019-01-11T07:09:03.282Z,4.00
2019-01-11T07:10:03.237Z,4.00
2019-01-11T07:11:03.274Z,8.00
2019-01-11T07:12:03.426Z,4.00
2019-01-11T07:13:03.214Z,8.00
2019-01-11T07:14:03.227Z,8.00
2019-01-11T07:15:03.198Z,8.00
2019-01-11T07:16:03.174Z,8.00
2019-01-11T07:17:03.704Z,12.00
2019-01-11T07:18:03.147Z,12.00
2019-01-11T07:19:03.137Z,16.00
2019-01-11T07:20:05.656Z,16.00
2019-01-11T07:21:03.113Z,16.00
2019-01-11T07:22:03.112Z,20.00
2019-01-11T07:23:03.134Z,20.00
2019-01-11T07:24:03.091Z,20.00
2019-01-11T07:25:03.104Z,20.00
2019-01-11T07:26:03.071Z,24.00
2019-01-11T07:27:03.058Z,24.00
2019-01-11T07:28:03.699Z,28.00
2019-01-11T07:29:03.072Z,28.00
2019-01-11T07:30:03.063Z,32.00
2019-01-11T07:31:03.013Z,36.00
2019-01-11T07:32:03.697Z,36.00
2019-01-11T07:33:02.996Z,40.00
2019-01-11T07:34:03.019Z,44.00
2019-01-11T07:35:02.960Z,48.00
2019-01-11T07:36:02.959Z,48.00
2019-01-11T07:37:02.970Z,56.00
2019-01-11T07:38:02.939Z,56.00
2019-01-11T07:39:02.964Z,60.00
2019-01-11T07:40:02.909Z,68.00
2019-01-11T07:41:02.911Z,68.00
2019-01-11T07:42:02.888Z,72.00
2019-01-11T07:43:02.881Z,76.00
2019-01-11T07:44:03.136Z,84.00
2019-01-11T07:45:02.863Z,88.00
2019-01-11T07:46:02.851Z,96.00
2019-01-11T07:47:02.870Z,96.00
2019-01-11T07:48:02.820Z,108.00
2019-01-11T07:49:02.805Z,116.00
2019-01-11T07:50:02.843Z,128.00
2019-01-11T07:51:02.786Z,136.00
2019-01-11T07:52:04.688Z,144.00
2019-01-11T07:53:02.883Z,152.00
2019-01-11T07:54:02.759Z,160.00
2019-01-11T07:55:02.785Z,168.00
2019-01-11T07:56:02.732Z,180.00
2019-01-11T07:57:02.824Z,184.00
2019-01-11T07:58:02.711Z,188.00
2019-01-11T07:59:02.711Z,192.00
2019-01-11T08:00:02.727Z,196.00
2019-01-11T08:01:02.689Z,212.00
2019-01-11T08:02:02.754Z,228.00
2019-01-11T08:03:02.653Z,232.00
2019-01-11T08:04:02.646Z,248.00
2019-01-11T08:05:02.640Z,264.00
2019-01-11T08:06:02.668Z,276.00
2019-01-11T08:07:02.660Z,280.00
2019-01-11T08:08:02.600Z,292.00
2019-01-11T08:09:02.590Z,296.00
2019-01-11T08:10:02.589Z,304.00
2019-01-11T08:11:02.599Z,308.00
2019-01-11T08:12:02.558Z,304.00
2019-01-11T08:13:02.586Z,304.00
2019-01-11T08:14:02.545Z,312.00
2019-01-11T08:15:02.592Z,320.00
2019-01-11T08:16:02.519Z,332.00
2019-01-11T08:17:02.499Z,356.00
2019-01-11T08:18:02.494Z,364.00
2019-01-11T08:19:02.506Z,360.00
2019-01-11T08:20:02.482Z,352.00
2019-01-11T08:21:02.541Z,336.00
2019-01-11T08:22:02.528Z,328.00
2019-01-11T08:23:02.442Z,320.00
2019-01-11T08:24:02.472Z,312.00
2019-01-11T08:25:02.576Z,308.00
2019-01-11T08:26:02.404Z,308.00
2019-01-11T08:27:02.433Z,308.00
2019-01-11T08:28:02.389Z,304.00
2019-01-11T08:29:02.373Z,304.00
2019-01-11T08:30:02.375Z,300.00
2019-01-11T08:31:02.435Z,300.00
2019-01-11T08:32:02.338Z,292.00
2019-01-11T08:33:04.416Z,296.00
2019-01-11T08:34:02.324Z,296.00
2019-01-11T08:35:02.368Z,308.00
2019-01-11T08:36:02.293Z,312.00
2019-01-11T08:37:02.337Z,320.00
2019-01-11T08:38:02.279Z,340.00
2019-01-11T08:39:02.269Z,356.00
2019-01-11T08:40:02.256Z,364.00
2019-01-11T08:41:02.304Z,388.00
2019-01-11T08:42:02.229Z,392.00
2019-01-11T08:43:02.287Z,404.00
2019-01-11T08:44:02.210Z,396.00
2019-01-11T08:45:02.197Z,408.00
2019-01-11T08:46:02.203Z,420.00
2019-01-11T08:47:02.233Z,428.00
2019-01-11T08:48:02.172Z,448.00
2019-01-11T08:49:02.199Z,444.00
2019-01-11T08:50:02.215Z,440.00
2019-01-11T08:51:02.856Z,460.00
2019-01-11T08:52:02.133Z,496.00
2019-01-11T08:53:02.201Z,512.00
2019-01-11T08:54:02.155Z,528.00
2019-01-11T08:55:02.158Z,520.00
2019-01-11T08:56:08.145Z,504.00
2019-01-11T08:57:03.111Z,496.00
2019-01-11T08:58:02.113Z,516.00
2019-01-11T08:59:02.044Z,548.00
2019-01-11T09:00:02.035Z,564.00
2019-01-11T09:01:02.690Z,596.00
2019-01-11T09:02:02.672Z,632.00
2019-01-11T09:03:02.043Z,676.00
2019-01-11T09:04:02.149Z,688.00
2019-01-11T09:05:01.975Z,664.00
2019-01-11T09:06:02.674Z,668.00
2019-01-11T09:07:01.979Z,680.00
2019-01-11T09:08:01.943Z,680.00
2019-01-11T09:09:01.977Z,684.00
2019-01-11T09:10:01.932Z,720.00
2019-01-11T09:11:01.912Z,752.00
2019-01-11T09:12:01.904Z,764.00
2019-01-11T09:13:02.736Z,788.00
2019-01-11T09:14:01.884Z,812.00
2019-01-11T09:15:01.914Z,816.00
2019-01-11T09:16:01.858Z,804.00
2019-01-11T09:17:01.898Z,800.00
2019-01-11T09:18:01.832Z,800.00
2019-01-11T09:19:01.825Z,780.00
2019-01-11T09:20:01.814Z,780.00
2019-01-11T09:21:01.855Z,776.00
2019-01-11T09:22:01.789Z,760.00
2019-01-11T09:23:02.056Z,756.00
2019-01-11T09:24:01.783Z,732.00
2019-01-11T09:25:01.759Z,704.00
2019-01-11T09:26:01.778Z,668.00
2019-01-11T09:27:01.737Z,624.00
2019-01-11T09:28:01.727Z,584.00
2019-01-11T09:29:01.782Z,572.00
2019-01-11T09:30:01.768Z,564.00
2019-01-11T09:31:01.693Z,572.00
2019-01-11T09:32:01.699Z,580.00
2019-01-11T09:33:01.680Z,632.00
2019-01-11T09:34:01.747Z,708.00
2019-01-11T09:35:01.662Z,796.00
2019-01-11T09:36:01.707Z,872.00
2019-01-11T09:37:01.635Z,948.00
2019-01-11T09:38:01.642Z,1036.00
2019-01-11T09:39:01.614Z,1108.00
2019-01-11T09:40:01.648Z,1176.00
2019-01-11T09:41:01.583Z,1248.00
2019-01-11T09:42:01.583Z,1328.00
2019-01-11T09:43:01.597Z,1408.00
2019-01-11T09:44:01.576Z,1540.00
2019-01-11T09:45:01.621Z,1712.00
2019-01-11T09:46:01.616Z,1944.00
2019-01-11T09:47:01.515Z,2148.00
2019-01-11T09:48:01.509Z,2216.00
2019-01-11T09:49:01.504Z,2112.00
2019-01-11T09:50:01.512Z,1856.00
2019-01-11T09:51:01.470Z,1616.00
2019-01-11T09:52:01.530Z,1464.00
2019-01-11T09:53:01.454Z,1424.00
2019-01-11T09:54:01.439Z,1476.00
2019-01-11T09:55:01.460Z,1400.00
2019-01-11T09:56:01.562Z,1292.00
2019-01-11T09:57:01.440Z,1228.00
2019-01-11T09:58:01.431Z,1192.00
2019-01-11T09:59:01.407Z,1180.00
2019-01-11T10:00:01.405Z,1208.00
2019-01-11T10:01:01.503Z,1232.00
2019-01-11T10:02:01.376Z,1232.00
2019-01-11T10:03:01.391Z,1180.00
2019-01-11T10:04:01.343Z,1164.00
2019-01-11T10:05:01.367Z,1168.00
2019-01-11T10:06:01.321Z,1180.00
2019-01-11T10:07:01.353Z,1156.00
2019-01-11T10:08:01.289Z,1164.00
2019-01-11T10:09:01.275Z,1256.00
2019-01-11T10:10:01.276Z,1392.00
2019-01-11T10:11:01.284Z,1568.00
2019-01-11T10:12:02.238Z,1680.00
2019-01-11T10:13:01.831Z,1716.00
2019-01-11T10:14:01.288Z,1672.00
2019-01-11T10:15:01.280Z,1668.00
2019-01-11T10:16:01.262Z,1692.00
2019-01-11T10:17:01.208Z,1720.00
2019-01-11T10:18:03.220Z,1720.00
2019-01-11T10:19:01.206Z,1688.00
2019-01-11T10:20:01.218Z,1604.00
2019-01-11T10:21:01.154Z,1548.00
2019-01-11T10:22:01.144Z,1484.00
2019-01-11T10:23:01.250Z,1396.00
2019-01-11T10:24:01.111Z,1360.00
2019-01-11T10:25:01.116Z,1388.00
2019-01-11T10:26:01.089Z,1356.00
2019-01-11T10:27:01.113Z,1320.00
2019-01-11T10:28:01.120Z,1276.00
2019-01-11T10:29:01.061Z,1204.00
2019-01-11T10:30:01.070Z,1108.00
2019-01-11T10:31:01.042Z,992.00
2019-01-11T10:32:01.030Z,908.00
2019-01-11T10:33:01.011Z,880.00
2019-01-11T10:34:01.068Z,840.00
2019-01-11T10:35:00.994Z,848.00
2019-01-11T10:36:00.985Z,912.00
2019-01-11T10:37:00.976Z,1004.00
2019-01-11T10:38:00.997Z,1072.00
2019-01-11T10:39:00.969Z,1144.00
2019-01-11T10:40:00.936Z,1136.00
2019-01-11T10:41:00.927Z,1040.00
2019-01-11T10:42:00.923Z,976.00
2019-01-11T10:43:00.930Z,916.00
2019-01-11T10:44:00.938Z,860.00
2019-01-11T10:45:00.886Z,808.00
2019-01-11T10:46:00.884Z,808.00
2019-01-11T10:47:00.870Z,824.00
2019-01-11T10:48:00.847Z,800.00
2019-01-11T10:49:00.851Z,816.00
2019-01-11T10:50:00.866Z,880.00
2019-01-11T10:51:00.820Z,932.00
2019-01-11T10:52:00.807Z,968.00
2019-01-11T10:53:00.862Z,960.00
2019-01-11T10:54:00.830Z,896.00
2019-01-11T10:55:00.771Z,864.00
2019-01-11T10:56:00.785Z,868.00
2019-01-11T10:57:00.756Z,888.00
2019-01-11T10:58:00.755Z,960.00
2019-01-11T10:59:00.752Z,1076.00
2019-01-11T11:00:01.268Z,1236.00
2019-01-11T11:01:00.708Z,1400.00
2019-01-11T11:02:00.703Z,1616.00
2019-01-11T11:03:00.695Z,1784.00
2019-01-11T11:04:00.715Z,1884.00
2019-01-11T11:05:00.660Z,1712.00
2019-01-11T11:06:00.826Z,1512.00
2019-01-11T11:07:00.727Z,1276.00
2019-01-11T11:08:00.632Z,1104.00
2019-01-11T11:09:00.683Z,988.00
2019-01-11T11:10:00.606Z,940.00
2019-01-11T11:11:00.601Z,984.00
2019-01-11T11:12:00.631Z,1080.00
2019-01-11T11:13:00.632Z,1192.00
2019-01-11T11:14:02.200Z,1332.00
2019-01-11T11:15:00.584Z,1420.00
2019-01-11T11:16:02.213Z,1460.00
2019-01-11T11:17:00.562Z,1544.00
2019-01-11T11:18:00.688Z,1716.00
2019-01-11T11:19:00.540Z,1820.00
2019-01-11T11:20:00.499Z,1960.00
2019-01-11T11:21:00.481Z,2200.00
2019-01-11T11:22:00.483Z,2356.00
2019-01-11T11:23:00.577Z,2424.00
2019-01-11T11:24:00.469Z,2372.00
2019-01-11T11:25:01.163Z,2364.00
2019-01-11T11:26:00.513Z,2316.00
2019-01-11T11:27:02.233Z,2396.00
2019-01-11T11:28:00.421Z,2464.00
2019-01-11T11:29:00.457Z,2484.00
2019-01-11T11:30:00.428Z,2412.00
2019-01-11T11:31:00.439Z,2364.00
2019-01-11T11:32:00.379Z,2340.00
2019-01-11T11:33:00.364Z,2328.00
2019-01-11T11:34:00.344Z,2088.00
2019-01-11T11:35:00.411Z,1848.00
2019-01-11T11:36:00.330Z,1716.00
2019-01-11T11:37:00.375Z,1600.00
2019-01-11T11:38:00.311Z,1424.00
2019-01-11T11:39:00.294Z,1276.00
2019-01-11T11:40:00.305Z,1132.00
2019-01-11T11:41:00.345Z,1032.00
2019-01-11T11:42:00.258Z,956.00
2019-01-11T11:43:00.259Z,936.00
2019-01-11T11:44:00.311Z,924.00
2019-01-11T11:45:00.251Z,928.00
2019-01-11T11:46:00.266Z,948.00
2019-01-11T11:47:00.253Z,984.00
2019-01-11T11:48:00.247Z,1072.00
2019-01-11T11:49:02.369Z,1300.00
2019-01-11T11:50:00.184Z,1552.00
2019-01-11T11:51:00.155Z,1760.00
2019-01-11T11:52:00.162Z,1880.00
2019-01-11T11:53:00.152Z,1828.00
2019-01-11T11:54:00.231Z,1728.00
2019-01-11T11:55:00.425Z,1736.00
2019-01-11T11:56:00.133Z,1724.00
2019-01-11T11:57:00.091Z,1632.00
2019-01-11T11:58:00.085Z,1576.00
2019-01-11T11:59:00.066Z,1460.00
2019-01-11T12:00:00.699Z,1344.00
2019-01-11T12:01:00.226Z,1260.00
2019-01-11T12:02:00.040Z,1252.00
2019-01-11T12:03:00.058Z,1152.00
2019-01-11T12:04:00.058Z,1032.00
2019-01-11T12:05:00.091Z,1008.00
2019-01-11T12:06:00.008Z,1116.00
2019-01-11T12:07:00.009Z,1332.00
2019-01-11T12:07:59.985Z,1628.00
2019-01-11T12:09:00.015Z,2000.00
2019-01-11T12:10:00.213Z,2404.00
2019-01-11T12:10:59.939Z,2500.00
2019-01-11T12:11:59.937Z,2508.00
2019-01-11T12:12:59.959Z,2328.00
2019-01-11T12:13:59.906Z,2240.00
2019-01-11T12:14:59.943Z,2056.00
2019-01-11T12:15:59.897Z,2064.00
2019-01-11T12:16:59.877Z,2136.00
2019-01-11T12:17:59.865Z,2144.00
2019-01-11T12:18:59.870Z,2088.00
2019-01-11T12:19:59.911Z,1996.00
2019-01-11T12:20:59.873Z,1804.00
2019-01-11T12:22:01.719Z,1596.00
2019-01-11T12:22:59.858Z,1620.00
2019-01-11T12:23:59.834Z,1652.00
2019-01-11T12:24:59.788Z,1896.00
2019-01-11T12:25:59.814Z,2088.00
2019-01-11T12:26:59.765Z,2080.00
2019-01-11T12:27:59.752Z,1992.00
2019-01-11T12:28:59.751Z,1704.00
2019-01-11T12:29:59.727Z,1512.00
2019-01-11T12:30:59.718Z,1416.00
2019-01-11T12:31:59.796Z,1324.00
2019-01-11T12:32:59.699Z,1296.00
2019-01-11T12:33:59.684Z,1368.00
2019-01-11T12:34:59.676Z,1360.00
2019-01-11T12:35:59.666Z,1220.00
2019-01-11T12:36:59.717Z,1120.00
2019-01-11T12:37:59.703Z,1052.00
2019-01-11T12:38:59.638Z,992.00
2019-01-11T12:39:59.629Z,1000.00
2019-01-11T12:40:59.657Z,964.00
2019-01-11T12:41:59.592Z,960.00
2019-01-11T12:42:59.698Z,960.00
2019-01-11T12:43:59.613Z,956.00
2019-01-11T12:44:59.558Z,864.00
2019-01-11T12:45:59.563Z,768.00
2019-01-11T12:46:59.553Z,648.00
2019-01-11T12:47:59.528Z,568.00
2019-01-11T12:48:59.514Z,492.00
2019-01-11T12:49:59.562Z,420.00
2019-01-11T12:50:59.491Z,364.00
2019-01-11T12:51:59.488Z,332.00